createdAt,value
2019-06-07T00:01:58.435Z,10.13
2019-06-07T00:04:29.049Z,8.33
2019-06-07T00:06:59.363Z,11.70
2019-06-07T00:09:29.577Z,8.73
2019-06-07T00:12:00.220Z,11.25
2019-06-07T00:14:30.579Z,10.48
2019-06-07T00:17:00.844Z,9.50
2019-06-07T00:19:31.121Z,10.23
2019-06-07T00:22:30.064Z,9.55
2019-06-07T00:24:33.278Z,10.55
2019-06-07T00:27:03.506Z,9.55
2019-06-07T00:29:33.831Z,11.65
2019-06-07T00:32:04.175Z,10.20
2019-06-07T00:34:35.696Z,16.52
2019-06-07T00:37:07.101Z,12.85
2019-06-07T00:39:37.551Z,14.43
2019-06-07T00:42:07.897Z,13.48
2019-06-07T00:44:38.109Z,12.20
2019-06-07T00:47:08.347Z,10.35
2019-06-07T00:49:41.355Z,12.78
2019-06-07T00:52:18.211Z,9.88
2019-06-07T00:54:43.244Z,12.75
2019-06-07T00:57:16.637Z,11.18
2019-06-07T00:59:45.590Z,13.98
2019-06-07T01:02:16.694Z,11.90
2019-06-07T01:04:48.156Z,11.75
2019-06-07T01:07:20.048Z,11.78
2019-06-07T01:09:51.010Z,10.58
2019-06-07T01:12:22.102Z,11.30
2019-06-07T01:14:55.517Z,12.53
2019-06-07T01:17:41.461Z,14.63
2019-06-07T01:19:59.918Z,13.40
2019-06-07T01:22:30.211Z,12.63
2019-06-07T01:25:00.453Z,11.73
2019-06-07T01:27:30.733Z,10.88
2019-06-07T01:30:01.643Z,11.22
2019-06-07T01:32:34.342Z,11.57
2019-06-07T01:35:08.712Z,9.63
2019-06-07T01:37:39.354Z,11.48
2019-06-07T01:40:13.307Z,11.10
2019-06-07T01:42:44.211Z,13.50
2019-06-07T01:45:17.918Z,12.13
2019-06-07T01:47:47.750Z,13.03
2019-06-07T01:50:23.336Z,10.28
2019-06-07T01:52:53.455Z,13.48
2019-06-07T01:55:31.699Z,13.93
2019-06-07T01:57:59.064Z,11.18
2019-06-07T02:00:32.692Z,12.60
2019-06-07T02:03:02.756Z,14.63
2019-06-07T02:05:39.110Z,12.37
2019-06-07T02:08:09.337Z,13.62
2019-06-07T02:10:39.642Z,11.60
2019-06-07T02:13:09.965Z,11.40
2019-06-07T02:15:40.464Z,12.30
2019-06-07T02:18:10.652Z,16.27
2019-06-07T02:20:40.897Z,14.35
2019-06-07T02:23:11.118Z,14.83
2019-06-07T02:25:48.594Z,16.07
2019-06-07T02:28:31.932Z,14.87
2019-06-07T02:30:58.862Z,16.60
2019-06-07T02:33:18.456Z,16.82
2019-06-07T02:35:48.772Z,18.00
2019-06-07T02:38:23.099Z,13.62
2019-06-07T02:40:55.052Z,20.62
2019-06-07T02:43:28.252Z,15.55
2019-06-07T02:46:21.272Z,16.42
2019-06-07T02:48:36.189Z,14.43
2019-06-07T02:51:02.261Z,16.48
2019-06-07T02:53:39.541Z,15.45
2019-06-07T02:56:37.856Z,15.03
2019-06-07T02:58:41.573Z,14.58
2019-06-07T03:01:10.137Z,15.28
2019-06-07T03:03:42.004Z,13.65
2019-06-07T03:06:14.740Z,17.10
2019-06-07T03:08:47.104Z,16.70
2019-06-07T03:11:18.863Z,18.05
2019-06-07T03:13:50.885Z,15.43
2019-06-07T03:16:26.258Z,15.10
2019-06-07T03:19:02.591Z,14.90
2019-06-07T03:21:36.420Z,15.60
2019-06-07T03:24:06.964Z,18.23
2019-06-07T03:27:31.444Z,19.02
2019-06-07T03:29:09.698Z,19.87
2019-06-07T03:31:46.680Z,16.85
2019-06-07T03:34:11.959Z,16.70
2019-06-07T03:36:54.545Z,17.95
2019-06-07T03:39:28.017Z,16.50
2019-06-07T03:42:06.408Z,18.02
2019-06-07T03:44:33.954Z,18.25
2019-06-07T03:47:04.453Z,18.52
2019-06-07T03:49:48.644Z,17.67
2019-06-07T03:52:20.862Z,14.98
2019-06-07T03:54:54.676Z,13.78
2019-06-07T03:57:25.463Z,20.40
2019-06-07T03:59:55.759Z,19.95
2019-06-07T04:02:30.357Z,16.93
2019-06-07T04:05:02.853Z,20.57
2019-06-07T04:07:36.067Z,21.73
2019-06-07T04:10:09.124Z,17.07
2019-06-07T04:15:12.282Z,20.68
2019-06-07T04:18:00.751Z,24.40
2019-06-07T04:20:14.774Z,21.65
2019-06-07T04:22:46.933Z,18.23
2019-06-07T04:25:17.747Z,21.57
2019-06-07T04:27:48.002Z,19.80
2019-06-07T04:30:43.890Z,21.68
2019-06-07T04:33:14.957Z,19.35
2019-06-07T04:35:45.990Z,25.32
2019-06-07T04:38:17.836Z,22.73
2019-06-07T04:40:49.293Z,23.15
2019-06-07T04:43:19.708Z,26.82
2019-06-07T04:45:51.672Z,21.87
2019-06-07T04:48:23.346Z,23.18
2019-06-07T04:50:55.840Z,24.72
2019-06-07T04:53:26.102Z,22.70
2019-06-07T04:55:56.798Z,21.85
2019-06-07T04:58:27.022Z,25.70
2019-06-07T05:01:03.211Z,28.17
2019-06-07T05:03:31.388Z,25.35
2019-06-07T05:06:01.867Z,27.13
2019-06-07T05:08:35.130Z,27.82
2019-06-07T05:11:04.173Z,26.50
2019-06-07T05:13:37.819Z,24.47
2019-06-07T05:16:06.912Z,27.35
2019-06-07T05:18:40.225Z,24.95
2019-06-07T05:21:09.116Z,27.55
2019-06-07T05:24:05.732Z,26.85
2019-06-07T05:26:11.293Z,22.37
2019-06-07T05:28:43.007Z,24.70
2019-06-07T05:31:13.970Z,28.62
2019-06-07T05:33:44.339Z,24.72
2019-06-07T05:36:14.566Z,24.32
2019-06-07T05:38:45.189Z,24.90
2019-06-07T05:41:16.993Z,24.75
2019-06-07T05:44:01.119Z,26.62
2019-06-07T05:46:20.885Z,30.05
2019-06-07T05:48:51.875Z,24.20
2019-06-07T05:51:22.286Z,26.93
2019-06-07T05:53:53.106Z,23.38
2019-06-07T05:56:23.822Z,25.85
2019-06-07T05:58:56.094Z,26.17
2019-06-07T06:01:55.739Z,27.32
2019-06-07T06:04:00.055Z,26.70
2019-06-07T06:06:30.656Z,21.73
2019-06-07T06:09:13.394Z,25.65
2019-06-07T06:11:45.885Z,25.10
2019-06-07T06:14:08.360Z,22.75
2019-06-07T06:16:39.762Z,26.95
2019-06-07T06:19:10.707Z,20.80
2019-06-07T06:21:44.844Z,22.05
2019-06-07T06:24:13.748Z,27.55
2019-06-07T06:26:51.337Z,23.07
2019-06-07T06:29:16.007Z,22.15
2019-06-07T06:32:35.814Z,22.30
2019-06-07T06:34:19.966Z,21.30
2019-06-07T06:36:52.401Z,24.52
2019-06-07T06:39:22.701Z,21.93
2019-06-07T06:42:00.843Z,22.32
2019-06-07T06:44:27.283Z,19.90
2019-06-07T06:46:58.676Z,23.38
2019-06-07T06:49:29.262Z,23.02
2019-06-07T06:51:59.845Z,22.27
2019-06-07T06:54:40.776Z,20.43
2019-06-07T06:57:19.045Z,16.95
2019-06-07T06:59:39.312Z,18.33
2019-06-07T07:02:09.011Z,21.82
2019-06-07T07:04:41.904Z,16.75
2019-06-07T07:07:12.428Z,21.75
2019-06-07T07:09:47.615Z,21.15
2019-06-07T07:12:16.183Z,11.12
2019-06-07T07:14:49.258Z,12.45
2019-06-07T07:17:20.279Z,13.40
2019-06-07T07:19:52.983Z,10.50
2019-06-07T07:22:23.988Z,9.60
2019-06-07T07:24:54.967Z,10.85
2019-06-07T07:27:25.503Z,14.15
2019-06-07T07:30:31.269Z,8.73
2019-06-07T07:32:28.394Z,11.78
2019-06-07T07:35:00.755Z,11.78
2019-06-07T07:40:53.548Z,10.45
2019-06-07T07:42:34.776Z,8.50
2019-06-07T07:45:06.626Z,8.93
2019-06-07T07:47:57.654Z,13.35
2019-06-07T07:50:10.227Z,11.60
2019-06-07T07:52:40.931Z,8.93
2019-06-07T07:55:11.834Z,8.93
2019-06-07T07:57:42.398Z,9.03
2019-06-07T08:00:49.440Z,9.70
2019-06-07T08:02:48.901Z,9.00
2019-06-07T08:05:28.819Z,11.70
2019-06-07T08:07:56.490Z,9.20
2019-06-07T08:10:24.449Z,10.58
2019-06-07T08:13:14.451Z,9.90
2019-06-07T08:15:27.017Z,9.73
2019-06-07T08:18:03.187Z,7.90
2019-06-07T08:20:29.699Z,8.38
2019-06-07T08:23:01.385Z,7.37
2019-06-07T08:25:32.450Z,8.05
2019-06-07T08:28:03.096Z,7.35
2019-06-07T08:30:55.059Z,6.62
2019-06-07T08:33:25.495Z,7.85
2019-06-07T08:36:06.154Z,9.35
2019-06-07T08:38:29.859Z,8.73
2019-06-07T08:40:42.171Z,8.93
2019-06-07T08:43:20.280Z,7.00
2019-06-07T08:45:44.921Z,8.20
2019-06-07T08:48:27.593Z,8.15
2019-06-07T08:50:47.071Z,9.83
2019-06-07T08:53:17.421Z,5.58
2019-06-07T08:55:48.137Z,8.25
2019-06-07T08:58:18.551Z,6.10
2019-06-07T09:00:49.384Z,5.40
2019-06-07T09:03:21.350Z,9.58
2019-06-07T09:05:54.200Z,5.92
2019-06-07T09:08:30.334Z,8.75
2019-06-07T09:10:58.917Z,7.58
2019-06-07T09:13:28.914Z,6.87
2019-06-07T09:16:04.929Z,9.38
2019-06-07T09:18:42.004Z,12.28
2019-06-07T09:21:07.695Z,11.27
2019-06-07T09:23:35.818Z,7.28
2019-06-07T09:26:15.975Z,8.20
2019-06-07T09:28:38.049Z,10.18
2019-06-07T09:31:10.389Z,10.20
2019-06-07T09:33:41.003Z,9.13
2019-06-07T09:36:13.156Z,9.23
2019-06-07T09:38:44.635Z,7.17
2019-06-07T09:41:15.300Z,9.08
2019-06-07T09:44:01.764Z,7.55
2019-06-07T09:46:18.738Z,7.70
2019-06-07T09:51:21.103Z,7.12
2019-06-07T09:53:52.037Z,10.85
2019-06-07T09:56:22.354Z,5.95
2019-06-07T09:58:55.343Z,6.47
2019-06-07T10:01:25.701Z,9.43
2019-06-07T10:04:02.317Z,7.00
2019-06-07T10:06:29.623Z,7.50
2019-06-07T10:10:04.668Z,9.98
2019-06-07T10:11:34.329Z,10.95
2019-06-07T10:14:06.838Z,9.98
2019-06-07T10:16:46.925Z,10.82
2019-06-07T10:19:10.993Z,8.93
2019-06-07T10:21:41.631Z,9.25
2019-06-07T10:24:11.971Z,8.95
2019-06-07T10:26:42.553Z,8.03
2019-06-07T10:29:12.869Z,8.70
2019-06-07T10:31:43.443Z,8.98
2019-06-07T10:34:13.784Z,8.58
2019-06-07T10:36:44.214Z,9.98
2019-06-07T10:39:14.479Z,8.93
2019-06-07T10:41:44.718Z,14.90
2019-06-07T10:44:15.324Z,7.00
2019-06-07T10:46:45.983Z,7.53
2019-06-07T10:49:16.649Z,7.00
2019-06-07T10:51:48.637Z,14.30
2019-06-07T10:54:26.697Z,9.13
2019-06-07T10:56:51.809Z,9.58
2019-06-07T10:59:22.164Z,6.83
2019-06-07T11:01:54.220Z,11.33
2019-06-07T11:04:24.938Z,7.45
2019-06-07T11:06:55.246Z,6.92
2019-06-07T11:09:25.856Z,9.13
2019-06-07T11:11:56.491Z,10.78
2019-06-07T11:14:27.894Z,7.83
2019-06-07T11:16:58.118Z,8.80
2019-06-07T11:19:28.742Z,28.38
2019-06-07T11:21:59.387Z,10.68
2019-06-07T11:24:29.736Z,11.65
2019-06-07T11:26:59.955Z,10.08
2019-06-07T11:29:30.555Z,11.12
2019-06-07T11:32:00.816Z,8.70
2019-06-07T11:34:31.044Z,8.95
2019-06-07T11:37:01.491Z,12.20
2019-06-07T11:39:32.025Z,12.90
2019-06-07T11:42:02.342Z,15.63
2019-06-07T11:44:32.577Z,9.15
2019-06-07T11:47:04.343Z,9.53
2019-06-07T11:49:35.109Z,10.72
2019-06-07T11:52:05.670Z,10.15
2019-06-07T11:54:36.511Z,12.73
2019-06-07T11:57:07.169Z,10.98
2019-06-07T11:59:37.675Z,8.40
2019-06-07T12:02:09.135Z,8.35
2019-06-07T12:04:39.964Z,9.63
2019-06-07T12:07:12.082Z,8.30
2019-06-07T12:09:55.520Z,16.82
2019-06-07T12:12:14.563Z,15.30
2019-06-07T12:14:46.516Z,8.28
2019-06-07T12:17:17.668Z,10.10
2019-06-07T12:19:48.362Z,7.12
2019-06-07T12:22:20.043Z,9.73
2019-06-07T12:24:51.047Z,7.00
2019-06-07T12:27:21.887Z,7.87
2019-06-07T12:29:52.172Z,9.05
2019-06-07T12:32:22.410Z,11.70
2019-06-07T12:34:53.033Z,7.83
2019-06-07T12:37:39.207Z,8.35
2019-06-07T12:39:55.632Z,10.30
2019-06-07T12:42:25.929Z,8.43
2019-06-07T12:44:56.151Z,8.25
2019-06-07T12:47:26.413Z,9.38
2019-06-07T12:49:57.014Z,10.95
2019-06-07T12:52:27.713Z,5.65
2019-06-07T12:54:58.166Z,8.00
2019-06-07T12:57:28.442Z,12.28
2019-06-07T12:59:58.713Z,11.80
2019-06-07T13:02:29.332Z,7.55
2019-06-07T13:05:04.322Z,14.45
2019-06-07T13:07:31.907Z,7.50
2019-06-07T13:10:02.497Z,26.82
2019-06-07T13:12:32.866Z,14.58
2019-06-07T13:15:04.411Z,8.60
2019-06-07T13:17:35.118Z,9.80
2019-06-07T13:20:09.299Z,9.73
2019-06-07T13:22:39.537Z,11.22
2019-06-07T13:25:10.352Z,7.28
2019-06-07T13:27:40.892Z,7.92
2019-06-07T13:30:13.447Z,9.35
2019-06-07T13:32:44.102Z,5.30
2019-06-07T13:35:18.114Z,7.08
2019-06-07T13:37:47.928Z,9.80
2019-06-07T13:40:19.700Z,6.28
2019-06-07T13:42:51.455Z,9.50
2019-06-07T13:45:22.391Z,7.55
2019-06-07T13:47:52.807Z,8.83
2019-06-07T13:50:24.260Z,6.83
2019-06-07T13:52:54.498Z,6.95
2019-06-07T13:55:25.878Z,6.53
2019-06-07T13:57:56.602Z,10.45
2019-06-07T14:00:26.899Z,8.38
2019-06-07T14:02:57.171Z,13.48
2019-06-07T14:05:29.045Z,5.83
2019-06-07T14:07:59.943Z,6.85
2019-06-07T14:10:30.340Z,13.90
2019-06-07T14:13:00.580Z,8.25
2019-06-07T14:15:33.986Z,5.60
2019-06-07T14:18:02.841Z,6.78
2019-06-07T14:20:34.745Z,9.33
2019-06-07T14:23:05.657Z,10.70
2019-06-07T14:25:36.179Z,15.23
2019-06-07T14:28:11.412Z,20.68
2019-06-07T14:30:39.488Z,15.83
2019-06-07T14:33:10.239Z,13.40
2019-06-07T14:35:40.571Z,18.07
2019-06-07T14:38:12.133Z,12.07
2019-06-07T14:40:42.800Z,13.88
2019-06-07T14:43:13.233Z,14.90
2019-06-07T14:45:44.092Z,15.48
2019-06-07T14:48:15.882Z,18.45
2019-06-07T14:50:46.393Z,11.38
2019-06-07T14:53:17.221Z,19.27
2019-06-07T14:55:48.278Z,16.60
2019-06-07T14:58:18.989Z,20.50
2019-06-07T15:00:49.390Z,13.32
2019-06-07T15:03:21.983Z,14.95
2019-06-07T15:05:52.276Z,22.25
2019-06-07T15:08:23.074Z,16.60
2019-06-07T15:10:53.724Z,19.70
2019-06-07T15:13:24.034Z,16.95
2019-06-07T15:15:54.345Z,15.28
2019-06-07T15:18:25.022Z,11.08
2019-06-07T15:20:55.697Z,10.65
2019-06-07T15:23:27.060Z,9.28
2019-06-07T15:25:57.579Z,7.70
2019-06-07T15:28:29.997Z,9.28
2019-06-07T15:31:00.261Z,16.12
2019-06-07T15:33:31.846Z,11.38
2019-06-07T15:36:03.344Z,9.38
2019-06-07T15:38:34.790Z,8.65
2019-06-07T15:41:05.542Z,6.47
2019-06-07T15:43:37.426Z,10.80
2019-06-07T15:46:08.146Z,10.05
2019-06-07T15:48:40.072Z,11.63
2019-06-07T15:51:10.981Z,14.03
2019-06-07T15:53:44.587Z,10.90
2019-06-07T15:56:14.568Z,14.50
2019-06-07T15:58:44.920Z,10.43
2019-06-07T16:01:15.883Z,8.83
2019-06-07T16:03:46.405Z,16.57
2019-06-07T16:06:19.473Z,14.30
2019-06-07T16:08:49.998Z,13.43
2019-06-07T16:11:20.687Z,11.15
2019-06-07T16:13:51.346Z,12.30
2019-06-07T16:16:22.107Z,11.95
2019-06-07T16:18:52.770Z,16.90
2019-06-07T16:21:23.098Z,9.88
2019-06-07T16:23:53.722Z,10.68
2019-06-07T16:26:25.629Z,14.93
2019-06-07T16:28:57.340Z,12.88
2019-06-07T16:31:28.527Z,19.23
2019-06-07T16:33:58.902Z,21.80
2019-06-07T16:36:29.587Z,15.85
2019-06-07T16:39:00.259Z,12.25
2019-06-07T16:41:31.104Z,12.82
2019-06-07T16:44:01.537Z,16.73
2019-06-07T16:46:32.487Z,14.10
2019-06-07T16:49:02.790Z,13.78
2019-06-07T16:51:33.153Z,14.33
2019-06-07T16:54:03.399Z,11.85
2019-06-07T16:56:33.666Z,12.80
2019-06-07T16:59:04.330Z,11.53
2019-06-07T17:01:34.732Z,11.78
2019-06-07T17:04:05.538Z,11.18
2019-06-07T17:06:35.847Z,12.23
2019-06-07T17:09:07.987Z,17.27
2019-06-07T17:11:38.403Z,15.55
2019-06-07T17:14:08.625Z,10.85
2019-06-07T17:16:39.034Z,13.10
2019-06-07T17:19:09.352Z,13.78
2019-06-07T17:21:40.944Z,14.45
2019-06-07T17:24:11.672Z,13.93
2019-06-07T17:26:43.360Z,11.63
2019-06-07T17:29:15.388Z,10.23
2019-06-07T17:31:46.430Z,10.23
2019-06-07T17:34:17.396Z,12.25
2019-06-07T17:36:48.759Z,10.68
2019-06-07T17:39:19.444Z,12.18
2019-06-07T17:42:00.004Z,12.58
2019-06-07T17:44:21.783Z,11.70
2019-06-07T17:46:52.368Z,11.88
2019-06-07T17:49:23.050Z,16.20
2019-06-07T17:51:54.545Z,10.95
2019-06-07T17:54:24.740Z,17.80
2019-06-07T17:56:54.989Z,14.80
2019-06-07T17:59:25.224Z,10.38
2019-06-07T18:02:13.594Z,16.25
2019-06-07T18:04:27.510Z,13.25
2019-06-07T18:06:58.299Z,12.98
2019-06-07T18:09:30.149Z,12.93
2019-06-07T18:12:00.493Z,11.35
2019-06-07T18:14:31.255Z,16.45
2019-06-07T18:17:02.122Z,13.88
2019-06-07T18:19:32.487Z,12.23
2019-06-07T18:22:02.770Z,18.48
2019-06-07T18:24:33.036Z,17.32
2019-06-07T18:27:06.974Z,16.35
2019-06-07T18:29:35.900Z,15.75
2019-06-07T18:32:06.137Z,19.37
2019-06-07T18:34:37.557Z,16.75
2019-06-07T18:37:07.932Z,16.62
2019-06-07T18:39:38.665Z,15.78
2019-06-07T18:42:09.348Z,19.15
2019-06-07T18:44:39.714Z,14.10
2019-06-07T18:47:10.337Z,15.93
2019-06-07T18:49:41.092Z,20.48
2019-06-07T18:52:16.845Z,34.60
2019-06-07T18:54:48.856Z,36.83
2019-06-07T18:57:19.287Z,48.20
2019-06-07T18:59:50.169Z,36.65
2019-06-07T19:02:20.716Z,33.40
2019-06-07T19:04:52.198Z,43.45
2019-06-07T19:07:24.377Z,40.45
2019-06-07T19:09:55.114Z,38.33
2019-06-07T19:12:25.794Z,46.55
2019-06-07T19:14:57.523Z,33.65
2019-06-07T19:17:28.496Z,20.75
2019-06-07T19:19:58.882Z,24.12
2019-06-07T19:22:29.485Z,27.13
2019-06-07T19:25:00.580Z,27.48
2019-06-07T19:27:33.177Z,33.25
2019-06-07T19:30:05.723Z,45.33
2019-06-07T19:32:36.322Z,40.80
2019-06-07T19:35:08.516Z,47.00
2019-06-07T19:37:38.810Z,33.58
2019-06-07T19:40:10.764Z,29.82
2019-06-07T19:42:41.089Z,30.00
2019-06-07T19:45:31.021Z,35.38
2019-06-07T19:47:44.288Z,27.30
2019-06-07T19:50:17.098Z,30.08
2019-06-07T19:52:47.347Z,34.78
2019-06-07T19:55:17.982Z,41.05
2019-06-07T19:57:50.136Z,37.28
2019-06-07T20:00:21.844Z,42.45
2019-06-07T20:02:52.155Z,31.42
2019-06-07T20:05:22.782Z,32.38
2019-06-07T20:07:54.455Z,32.78
2019-06-07T20:10:25.176Z,31.10
2019-06-07T20:12:56.580Z,34.78
2019-06-07T20:15:29.427Z,35.58
2019-06-07T20:17:59.507Z,33.90
2019-06-07T20:20:30.164Z,35.20
2019-06-07T20:23:01.040Z,35.75
2019-06-07T20:25:31.523Z,31.30
2019-06-07T20:28:03.373Z,38.35
2019-06-07T20:30:34.021Z,38.78
2019-06-07T20:33:05.991Z,35.88
2019-06-07T20:35:36.252Z,36.20
2019-06-07T20:38:06.538Z,41.63
2019-06-07T20:40:37.413Z,35.17
2019-06-07T20:43:08.250Z,26.68
2019-06-07T20:45:39.125Z,29.50
2019-06-07T20:48:09.785Z,28.75
2019-06-07T20:50:40.445Z,28.92
2019-06-07T20:53:10.797Z,32.45
2019-06-07T20:55:41.142Z,27.42
2019-06-07T20:58:11.440Z,31.93
2019-06-07T21:00:42.077Z,27.93
2019-06-07T21:03:13.023Z,27.52
2019-06-07T21:05:43.343Z,43.63
2019-06-07T21:08:13.596Z,33.38
2019-06-07T21:10:43.887Z,28.50
2019-06-07T21:13:14.148Z,28.32
2019-06-07T21:15:48.817Z,29.02
2019-06-07T21:18:19.855Z,30.82
2019-06-07T21:20:48.735Z,29.15
2019-06-07T21:23:19.049Z,26.23
2019-06-07T21:25:49.308Z,26.23
2019-06-07T21:28:19.724Z,31.35
2019-06-07T21:30:50.297Z,29.25
2019-06-07T21:33:20.979Z,30.95
2019-06-07T21:35:51.270Z,29.45
2019-06-07T21:38:21.576Z,33.83
2019-06-07T21:40:51.836Z,31.97
2019-06-07T21:43:22.268Z,35.63
2019-06-07T21:46:04.715Z,28.77
2019-06-07T21:48:24.994Z,33.00
2019-06-07T21:50:55.686Z,30.57
2019-06-07T21:53:26.358Z,28.73
2019-06-07T21:55:57.029Z,32.30
2019-06-07T21:58:27.350Z,34.15
2019-06-07T22:01:04.690Z,34.80
2019-06-07T22:03:38.054Z,33.75
2019-06-07T22:06:09.652Z,36.42
2019-06-07T22:08:40.635Z,42.65
2019-06-07T22:11:12.301Z,36.93
2019-06-07T22:13:43.472Z,37.45
2019-06-07T22:16:26.806Z,34.67
2019-06-07T22:18:46.055Z,42.05
2019-06-07T22:21:16.315Z,44.60
2019-06-07T22:23:47.060Z,40.60
2019-06-07T22:26:17.786Z,39.20
2019-06-07T22:28:48.206Z,37.35
2019-06-07T22:31:19.256Z,43.28
2019-06-07T22:33:49.937Z,38.78
2019-06-07T22:36:20.480Z,38.40
2019-06-07T22:38:50.814Z,48.75
2019-06-07T22:41:21.028Z,46.02
2019-06-07T22:43:51.717Z,43.05
2019-06-07T22:46:36.429Z,40.83
2019-06-07T22:48:54.533Z,41.08
2019-06-07T22:51:25.378Z,38.42
2019-06-07T22:53:56.059Z,36.93
2019-06-07T22:56:28.023Z,39.55
2019-06-07T22:58:58.673Z,37.35
2019-06-07T23:01:29.133Z,39.42
2019-06-07T23:04:01.037Z,39.95
2019-06-07T23:06:31.782Z,35.25
2019-06-07T23:09:02.516Z,40.75
2019-06-07T23:11:34.323Z,38.30
2019-06-07T23:14:04.698Z,40.23
2019-06-07T23:16:35.008Z,43.28
2019-06-07T23:19:05.330Z,37.23
2019-06-07T23:21:35.939Z,40.67
2019-06-07T23:24:06.596Z,49.73
2019-06-07T23:26:36.913Z,47.80
2019-06-07T23:29:07.238Z,42.98
2019-06-07T23:31:37.472Z,47.85
2019-06-07T23:34:07.706Z,41.85
2019-06-07T23:36:38.179Z,39.83
2019-06-07T23:39:09.366Z,39.70
2019-06-07T23:41:39.657Z,41.33
2019-06-07T23:44:11.051Z,41.50
2019-06-07T23:46:41.737Z,40.95
2019-06-07T23:49:14.041Z,40.40
2019-06-07T23:51:44.680Z,43.17
2019-06-07T23:54:15.670Z,40.92
2019-06-07T23:56:46.079Z,40.85
2019-06-07T23:59:16.312Z,39.88
